Welcome to the Philippines vACC

Providing virtual air traffic control coverage to the 7,641 islands of the Philippines

vACC Philippines is a recognized member of the VATSIM network. We are dedicated to enhancing the online experience of both local and international virtual pilots. Mandated to provide professional and realistic air traffic operations.

vACC Philippines aims to provide the most realistic air traffic system simulation service that is close to the real thing as possible when flying on the VATSIM network.

VATSEA Logo
VATSIM Logo

Upcoming Event

Fly-in-Fridays

[06/25/2021] Fly-in-Fridays

READ MORE

Online Controllers

There are no available controllers at this time.

Weather

RPLL RPLL 221100Z 25017KT 9999 FEW023 SCT100 27/24 Q1010 NOSIG RMK A2983
RPVM RPVM 221100Z 34004KT 9999 FEW020 BKN100 25/23 Q1012 RETSRA RMK A2988
RPMD RPMD 221100Z 01006KT 9999 VCSH FEW015 SCT290 28/23 Q1012 RMK A2988 VCSH SSE

Charts

Enter ICAO code starting with RP

Online Pilots

QFA471A21NRCTP - RPLL
CAL704A333RPLL - RCTP
CGNWNB732RPLL - WAMM
DCMWMB350RPVM - WAJJ
UPS158B763RPLC - RCTP
PAL1879A321RPVK - RPLL
PAL432 B77WRPLL - RJAA
EVA272B77WRPLL - RCTP
CEB854A21NRPMZ - RPLL
PAL319A320VHHH - RPLL